createdAt,value
2023-03-08T00:03:20.511Z,50.39
2023-03-08T00:08:22.080Z,50.33
2023-03-08T00:13:23.607Z,50.55
2023-03-08T00:18:25.080Z,50.43
2023-03-08T00:23:26.815Z,50.29
2023-03-08T00:28:28.781Z,50.46
2023-03-08T00:33:30.889Z,50.56
2023-03-08T00:38:35.117Z,50.21
2023-03-08T00:43:37.086Z,49.90
2023-03-08T00:48:38.829Z,49.39
2023-03-08T00:53:40.412Z,50.11
2023-03-08T00:58:42.586Z,49.47
2023-03-08T01:03:44.867Z,49.45
2023-03-08T01:08:46.437Z,49.83
2023-03-08T01:13:48.896Z,49.11
2023-03-08T01:18:50.912Z,49.58
2023-03-08T01:23:54.400Z,49.86
2023-03-08T01:28:57.742Z,49.89
2023-03-08T01:33:59.331Z,49.72
2023-03-08T01:39:01.278Z,49.95
2023-03-08T01:44:02.978Z,49.61
2023-03-08T01:49:19.693Z,49.37
2023-03-08T01:54:25.792Z,50.16
2023-03-08T01:59:28.292Z,50.37
2023-03-08T02:04:30.375Z,50.64
2023-03-08T02:09:32.417Z,50.70
2023-03-08T02:14:34.744Z,50.04
2023-03-08T02:19:43.767Z,49.79
2023-03-08T02:24:45.431Z,50.74
2023-03-08T02:29:47.455Z,50.72
2023-03-08T02:34:50.218Z,51.48
2023-03-08T02:39:51.736Z,51.50
2023-03-08T02:44:53.405Z,52.33
2023-03-08T02:49:54.964Z,52.39
2023-03-08T02:54:56.544Z,52.31
2023-03-08T03:00:00.060Z,51.68
2023-03-08T03:05:04.847Z,52.49
2023-03-08T03:10:09.738Z,52.66
2023-03-08T03:15:11.941Z,53.08
2023-03-08T03:20:15.812Z,52.78
2023-03-08T03:25:17.428Z,51.96
2023-03-08T03:30:20.981Z,51.48
2023-03-08T03:35:23.088Z,52.27
2023-03-08T03:40:25.220Z,51.89
2023-03-08T03:45:32.049Z,52.51
2023-03-08T03:50:33.638Z,52.43
2023-03-08T03:55:41.911Z,52.62
2023-03-08T04:00:43.639Z,52.60
2023-03-08T04:05:55.203Z,52.79
2023-03-08T04:11:00.414Z,52.89
2023-03-08T04:16:16.638Z,54.31
2023-03-08T04:21:18.676Z,54.06
2023-03-08T04:26:22.413Z,53.30
2023-03-08T04:31:28.163Z,52.97
2023-03-08T04:36:32.534Z,53.84
2023-03-08T04:41:35.124Z,53.28
2023-03-08T04:46:46.246Z,53.53
2023-03-08T04:51:53.906Z,53.50
2023-03-08T04:56:56.693Z,53.50
2023-03-08T05:02:00.195Z,53.77
2023-03-08T05:07:04.709Z,53.37
2023-03-08T05:12:09.707Z,54.24
2023-03-08T05:17:30.913Z,54.49
2023-03-08T05:22:37.138Z,54.43
2023-03-08T05:27:43.012Z,54.28
2023-03-08T05:32:44.697Z,55.11
2023-03-08T05:37:46.328Z,54.73
2023-03-08T05:42:49.070Z,55.21
2023-03-08T05:47:51.167Z,54.74
2023-03-08T05:52:52.772Z,55.00
2023-03-08T05:57:58.573Z,55.10
2023-03-08T06:03:01.472Z,55.20
2023-03-08T06:08:03.577Z,56.59
2023-03-08T06:13:05.135Z,56.33
2023-03-08T06:18:06.655Z,56.91
2023-03-08T06:23:08.592Z,56.90
2023-03-08T06:28:10.209Z,56.81
2023-03-08T06:33:14.514Z,55.98
2023-03-08T06:38:18.299Z,56.63
2023-03-08T06:43:20.821Z,56.59
2023-03-08T06:48:22.857Z,57.05
2023-03-08T06:53:25.939Z,57.11
2023-03-08T06:58:36.881Z,57.82
2023-03-08T07:03:38.500Z,57.50
2023-03-08T07:08:40.888Z,57.20
2023-03-08T07:13:42.427Z,56.96
2023-03-08T07:18:44.242Z,57.84
2023-03-08T07:23:45.763Z,57.97
2023-03-08T07:28:50.714Z,57.10
2023-03-08T07:33:52.197Z,56.51
2023-03-08T07:38:53.856Z,56.18
2023-03-08T07:43:55.312Z,55.82
2023-03-08T07:48:59.002Z,56.08
2023-03-08T07:54:00.567Z,54.86
2023-03-08T07:59:02.051Z,54.42
2023-03-08T08:04:03.583Z,54.65
2023-03-08T08:09:06.051Z,54.34
2023-03-08T08:14:07.849Z,54.47
2023-03-08T08:19:11.194Z,53.48
2023-03-08T08:24:12.726Z,54.22
2023-03-08T08:29:14.223Z,53.29
2023-03-08T08:34:15.737Z,53.95
2023-03-08T08:39:17.344Z,54.06
2023-03-08T08:44:18.930Z,53.90
2023-03-08T08:49:20.554Z,53.56
2023-03-08T08:54:22.103Z,52.71
2023-03-08T08:59:23.679Z,52.51
2023-03-08T09:04:25.328Z,51.18
2023-03-08T09:09:27.023Z,51.18
2023-03-08T09:14:28.520Z,52.39
2023-03-08T09:19:29.984Z,52.25
2023-03-08T09:24:31.567Z,53.03
2023-03-08T09:29:33.454Z,52.68
2023-03-08T09:34:35.138Z,53.30
2023-03-08T09:39:36.665Z,54.78
2023-03-08T09:45:01.248Z,53.93
2023-03-08T09:50:11.946Z,53.43
2023-03-08T09:55:25.616Z,53.62
2023-03-08T10:00:34.448Z,51.62
2023-03-08T10:06:02.870Z,52.78
2023-03-08T10:11:13.102Z,52.10
2023-03-08T10:16:35.557Z,52.91
2023-03-08T10:21:40.556Z,53.56
2023-03-08T10:26:43.712Z,53.16
2023-03-08T10:31:45.418Z,54.65
2023-03-08T10:36:53.152Z,55.46
2023-03-08T10:41:58.683Z,55.06
2023-03-08T10:47:03.934Z,56.34
2023-03-08T10:52:05.522Z,57.80
2023-03-08T10:57:18.932Z,58.62
2023-03-08T11:02:20.637Z,61.38
2023-03-08T11:07:31.749Z,63.00
2023-03-08T11:12:33.307Z,64.06
2023-03-08T11:17:38.442Z,64.43
2023-03-08T11:23:00.508Z,63.34
2023-03-08T11:28:14.104Z,62.62
2023-03-08T11:33:24.512Z,61.65
2023-03-08T11:38:32.042Z,61.77
2023-03-08T11:44:01.142Z,62.59
2023-03-08T11:49:25.815Z,62.52
2023-03-08T11:54:33.287Z,64.29
2023-03-08T11:59:42.122Z,64.41
2023-03-08T12:05:00.859Z,64.86
2023-03-08T12:10:42.097Z,64.18
2023-03-08T12:15:47.091Z,62.89
2023-03-08T12:20:50.146Z,61.44
2023-03-08T12:26:02.480Z,60.25
2023-03-08T12:31:28.455Z,59.61
2023-03-08T12:36:42.905Z,58.76
2023-03-08T12:41:44.657Z,56.83
2023-03-08T12:47:03.489Z,55.60
2023-03-08T12:52:07.537Z,56.31
2023-03-08T12:57:23.614Z,57.13
2023-03-08T13:02:27.177Z,57.04
2023-03-08T13:07:36.011Z,57.24
2023-03-08T13:13:13.824Z,56.67
2023-03-08T13:18:23.684Z,56.32
2023-03-08T13:23:32.367Z,56.22
2023-03-08T13:28:46.744Z,55.72
2023-03-08T13:33:58.071Z,54.91
2023-03-08T13:39:05.605Z,55.50
2023-03-08T13:44:24.589Z,55.83
2023-03-08T13:49:34.379Z,55.85
2023-03-08T13:54:38.446Z,55.39
2023-03-08T13:59:48.565Z,55.56
2023-03-08T14:04:50.937Z,55.91
2023-03-08T14:09:52.508Z,55.89
2023-03-08T14:15:01.265Z,55.20
2023-03-08T14:20:16.157Z,55.51
2023-03-08T14:25:32.038Z,54.93
2023-03-08T14:30:33.569Z,55.27
2023-03-08T14:35:44.889Z,54.87
2023-03-08T14:40:50.065Z,55.62
2023-03-08T14:46:05.229Z,55.63
2023-03-08T14:51:26.775Z,55.68
2023-03-08T14:56:30.180Z,55.55
2023-03-08T15:01:34.428Z,56.08
2023-03-08T15:06:39.226Z,55.46
2023-03-08T15:11:40.840Z,55.63
2023-03-08T15:16:42.402Z,55.88
2023-03-08T15:21:44.087Z,56.07
2023-03-08T15:26:46.177Z,57.09
2023-03-08T15:31:47.647Z,57.95
2023-03-08T15:36:50.342Z,58.80
2023-03-08T15:41:51.832Z,59.46
2023-03-08T15:46:53.283Z,60.66
2023-03-08T15:51:54.790Z,60.96
2023-03-08T15:56:56.247Z,59.88
2023-03-08T16:01:57.822Z,58.27
2023-03-08T16:06:59.401Z,58.29
2023-03-08T16:12:00.920Z,58.47
2023-03-08T16:17:03.848Z,58.60
2023-03-08T16:22:05.605Z,58.92
2023-03-08T16:27:07.076Z,59.78
2023-03-08T16:32:13.246Z,62.15
2023-03-08T16:37:14.772Z,62.96
2023-03-08T16:42:17.628Z,63.33
2023-03-08T16:47:20.527Z,64.15
2023-03-08T16:52:22.092Z,65.14
2023-03-08T16:57:23.914Z,65.48
2023-03-08T17:02:25.545Z,66.19
2023-03-08T17:07:27.135Z,67.45
2023-03-08T17:12:28.625Z,67.72
2023-03-08T17:17:30.506Z,68.26
2023-03-08T17:22:32.139Z,69.50
2023-03-08T17:27:33.583Z,69.98
2023-03-08T17:32:35.077Z,71.25
2023-03-08T17:37:36.518Z,71.55
2023-03-08T17:42:38.340Z,70.23
2023-03-08T17:47:39.958Z,69.39
2023-03-08T17:52:42.012Z,70.63
2023-03-08T17:57:43.503Z,72.00
2023-03-08T18:02:45.969Z,72.38
2023-03-08T18:07:47.463Z,73.80
2023-03-08T18:12:48.975Z,72.92
2023-03-08T18:17:50.448Z,72.96
2023-03-08T18:22:52.595Z,72.87
2023-03-08T18:27:54.104Z,72.11
2023-03-08T18:32:55.621Z,72.43
2023-03-08T18:37:57.154Z,71.74
2023-03-08T18:42:58.672Z,72.06
2023-03-08T18:48:00.206Z,71.17
2023-03-08T18:53:01.907Z,70.98
2023-03-08T18:58:03.498Z,69.44
2023-03-08T19:03:04.940Z,68.67
2023-03-08T19:08:06.635Z,66.75
2023-03-08T19:13:08.130Z,64.78
2023-03-08T19:18:10.394Z,64.12
2023-03-08T19:23:11.840Z,64.04
2023-03-08T19:28:13.286Z,62.33
2023-03-08T19:33:29.776Z,61.23
2023-03-08T19:38:32.344Z,60.47
2023-03-08T19:43:33.886Z,61.20
2023-03-08T19:48:36.626Z,61.12
2023-03-08T19:53:38.170Z,60.88
2023-03-08T19:58:39.632Z,60.95
2023-03-08T20:03:41.238Z,61.59
2023-03-08T20:08:42.746Z,60.70
2023-03-08T20:13:44.207Z,60.29
2023-03-08T20:18:46.336Z,59.99
2023-03-08T20:23:48.720Z,59.60
2023-03-08T20:28:51.323Z,59.98
2023-03-08T20:33:52.831Z,59.61
2023-03-08T20:38:54.408Z,59.11
2023-03-08T20:43:55.981Z,58.31
2023-03-08T20:48:57.452Z,57.89
2023-03-08T20:53:58.952Z,57.38
2023-03-08T20:59:00.666Z,57.81
2023-03-08T21:04:02.226Z,58.08
2023-03-08T21:09:03.780Z,56.90
2023-03-08T21:14:05.429Z,56.27
2023-03-08T21:19:07.222Z,55.84
2023-03-08T21:24:16.244Z,56.29
2023-03-08T21:29:19.709Z,55.35
2023-03-08T21:34:21.548Z,55.81
2023-03-08T21:39:23.091Z,54.67
2023-03-08T21:44:25.130Z,54.63
2023-03-08T21:49:28.818Z,55.80
2023-03-08T21:54:31.416Z,57.83
2023-03-08T21:59:32.885Z,59.13
2023-03-08T22:04:34.431Z,59.68
2023-03-08T22:09:35.933Z,61.47
2023-03-08T22:14:37.468Z,63.65
2023-03-08T22:19:38.981Z,64.13
2023-03-08T22:24:40.455Z,64.51
2023-03-08T22:29:42.048Z,65.32
2023-03-08T22:34:43.562Z,65.35
2023-03-08T22:39:45.195Z,66.07
2023-03-08T22:44:46.674Z,65.95
2023-03-08T22:49:50.214Z,66.04
2023-03-08T22:54:51.745Z,66.33
2023-03-08T22:59:57.950Z,67.45
2023-03-08T23:04:59.425Z,66.82
2023-03-08T23:10:00.878Z,65.58
2023-03-08T23:15:02.761Z,65.51
2023-03-08T23:20:04.597Z,65.36
2023-03-08T23:25:06.715Z,65.15
2023-03-08T23:30:09.626Z,66.09
2023-03-08T23:35:12.486Z,65.32
2023-03-08T23:40:14.663Z,64.04
2023-03-08T23:45:16.207Z,62.02
2023-03-08T23:50:17.757Z,62.94
2023-03-08T23:55:19.229Z,61.41
